メインページ
METAR-TAF:

METAR-TAF

空港 :

Newport State Airport

ニューポート, ロードアイランド州, アメリカ合衆国

緯度: 41-31-48N, 経度: 071-17-01W, 海抜: 52m

現時点の気象観測

当レポートは44分前の17:53(UTC)に作成
の風 8kt
気温 22°C
湿度 73%
気圧 1023 hPa
視程: 16.1km
晴天

METAR: KUUU 261753Z AUTO 19008KT 10SM CLR 22/17 A3021 RMK AO2 SLP229 T02170167 10222 20178 56004

時間: 14:37 (18:37 UTC)


TAF: 見つかりません

4,000以上の空港の気象観測と天気予報(METAR報とTAF報)

利用可能な観測所は地図上に黄色い丸と赤い丸で示す。

丸の上にカーソルを重ねると観測所名を参照できる。

次にクリックすると気象観測と天気予報を参照できる。

マップの切り替え:黒色「×」印の緑ボタンをクリックして拡大、「-」印の緑ボタンをクリックして縮小、緑色の三角印をクリックして隣りの地図に切り替え


METAR-TAF: